createdAt,value
2023-01-29T00:01:27.426Z,8.82
2023-01-29T00:03:30.161Z,9.65
2023-01-29T00:05:32.952Z,10.20
2023-01-29T00:07:35.693Z,9.88
2023-01-29T00:09:38.580Z,9.45
2023-01-29T00:11:41.729Z,10.35
2023-01-29T00:13:44.573Z,9.45
2023-01-29T00:15:56.342Z,9.07
2023-01-29T00:17:59.102Z,9.80
2023-01-29T00:20:01.829Z,9.15
2023-01-29T00:22:04.625Z,8.52
2023-01-29T00:24:07.713Z,8.88
2023-01-29T00:26:11.311Z,8.48
2023-01-29T00:28:18.807Z,8.70
2023-01-29T00:30:21.578Z,8.80
2023-01-29T00:32:25.659Z,8.88
2023-01-29T00:34:28.391Z,8.50
2023-01-29T00:36:31.606Z,8.95
2023-01-29T00:38:37.129Z,8.20
2023-01-29T00:40:58.229Z,8.20
2023-01-29T00:43:18.932Z,8.77
2023-01-29T00:45:21.652Z,7.57
2023-01-29T00:47:33.261Z,7.75
2023-01-29T00:49:36.027Z,8.65
2023-01-29T00:51:40.130Z,8.43
2023-01-29T00:53:42.886Z,8.35
2023-01-29T00:55:45.877Z,7.50
2023-01-29T00:57:49.227Z,7.80
2023-01-29T00:59:52.236Z,8.18
2023-01-29T01:02:12.453Z,8.05
2023-01-29T01:04:16.582Z,8.20
2023-01-29T01:06:19.330Z,8.63
2023-01-29T01:08:39.467Z,8.32
2023-01-29T01:10:42.222Z,8.10
2023-01-29T01:12:45.244Z,8.60
2023-01-29T01:14:48.265Z,8.05
2023-01-29T01:16:50.997Z,7.88
2023-01-29T01:18:53.846Z,8.40
2023-01-29T01:20:59.747Z,8.23
2023-01-29T01:23:02.731Z,8.20
2023-01-29T01:25:06.422Z,8.90
2023-01-29T01:27:09.388Z,9.05
2023-01-29T01:29:12.264Z,8.07
2023-01-29T01:31:15.553Z,8.13
2023-01-29T01:33:18.442Z,8.57
2023-01-29T01:35:21.334Z,8.38
2023-01-29T01:37:26.372Z,7.72
2023-01-29T01:39:29.228Z,7.80
2023-01-29T01:41:32.533Z,8.00
2023-01-29T01:43:49.284Z,8.90
2023-01-29T01:45:52.662Z,7.78
2023-01-29T01:48:00.447Z,8.45
2023-01-29T01:50:09.172Z,9.55
2023-01-29T01:52:15.259Z,8.93
2023-01-29T01:54:24.796Z,8.45
2023-01-29T01:56:40.457Z,8.25
2023-01-29T01:58:50.825Z,9.07
2023-01-29T02:00:55.854Z,8.43
2023-01-29T02:03:16.207Z,7.53
2023-01-29T02:05:36.656Z,6.80
2023-01-29T02:08:01.084Z,6.47
2023-01-29T02:10:11.290Z,6.72
2023-01-29T02:12:17.104Z,7.22
2023-01-29T02:14:20.038Z,8.13
2023-01-29T02:16:23.180Z,6.90
2023-01-29T02:18:25.949Z,7.35
2023-01-29T02:20:31.885Z,7.15
2023-01-29T02:22:56.540Z,7.15
2023-01-29T02:25:19.126Z,7.82
2023-01-29T02:27:25.320Z,7.70
2023-01-29T02:29:39.016Z,6.85
2023-01-29T02:31:49.496Z,7.53
2023-01-29T02:34:00.226Z,6.95
2023-01-29T02:36:15.977Z,7.45
2023-01-29T02:38:24.906Z,6.90
2023-01-29T02:40:32.662Z,7.20
2023-01-29T02:42:40.339Z,7.57
2023-01-29T02:44:49.776Z,6.97
2023-01-29T02:46:58.682Z,7.82
2023-01-29T02:49:11.645Z,7.53
2023-01-29T02:51:22.890Z,7.72
2023-01-29T02:53:30.953Z,7.82
2023-01-29T02:55:39.246Z,7.57
2023-01-29T02:57:45.552Z,7.53
2023-01-29T02:59:55.937Z,6.63
2023-01-29T03:02:04.976Z,7.47
2023-01-29T03:04:12.788Z,6.40
2023-01-29T03:06:22.200Z,6.88
2023-01-29T03:08:43.132Z,7.45
2023-01-29T03:10:52.636Z,7.95
2023-01-29T03:12:59.683Z,6.60
2023-01-29T03:15:16.722Z,7.07
2023-01-29T03:17:41.080Z,6.97
2023-01-29T03:19:48.073Z,6.30
2023-01-29T03:22:04.154Z,7.00
2023-01-29T03:24:27.587Z,6.68
2023-01-29T03:26:49.318Z,6.30
2023-01-29T03:29:10.532Z,6.25
2023-01-29T03:31:34.839Z,6.28
2023-01-29T03:33:45.600Z,7.25
2023-01-29T03:36:06.542Z,7.50
2023-01-29T03:38:11.430Z,7.80
2023-01-29T03:40:16.077Z,6.88
2023-01-29T03:42:25.687Z,7.63
2023-01-29T03:44:37.154Z,7.03
2023-01-29T03:46:47.907Z,6.60
2023-01-29T03:48:59.335Z,7.45
2023-01-29T03:51:15.898Z,6.40
2023-01-29T03:53:26.708Z,8.10
2023-01-29T03:55:37.137Z,7.57
2023-01-29T03:57:45.542Z,8.80
2023-01-29T03:59:58.168Z,6.72
2023-01-29T04:02:28.079Z,6.75
2023-01-29T04:04:36.342Z,6.85
2023-01-29T04:06:44.346Z,8.05
2023-01-29T04:08:53.329Z,5.95
2023-01-29T04:11:00.534Z,6.60
2023-01-29T04:13:07.776Z,5.32
2023-01-29T04:15:15.639Z,5.60
2023-01-29T04:17:25.035Z,5.85
2023-01-29T04:19:44.834Z,6.80
2023-01-29T04:21:51.886Z,5.78
2023-01-29T04:23:55.429Z,5.70
2023-01-29T04:26:12.388Z,5.70
2023-01-29T04:28:22.330Z,5.28
2023-01-29T04:30:36.158Z,5.30
2023-01-29T04:32:54.304Z,5.32
2023-01-29T04:35:02.547Z,6.03
2023-01-29T04:37:19.150Z,5.38
2023-01-29T04:39:26.682Z,4.90
2023-01-29T04:41:35.038Z,5.28
2023-01-29T04:43:45.596Z,5.65
2023-01-29T04:45:59.399Z,7.00
2023-01-29T04:48:15.367Z,5.95
2023-01-29T04:50:25.977Z,5.43
2023-01-29T04:52:39.018Z,6.32
2023-01-29T04:54:56.082Z,6.70
2023-01-29T04:57:06.811Z,6.15
2023-01-29T04:59:15.345Z,5.75
2023-01-29T05:01:22.373Z,5.75
2023-01-29T05:03:29.152Z,5.78
2023-01-29T05:05:32.430Z,6.32
2023-01-29T05:07:38.602Z,5.57
2023-01-29T05:09:45.071Z,6.25
2023-01-29T05:11:49.338Z,6.63
2023-01-29T05:13:52.362Z,8.40
2023-01-29T05:16:01.541Z,7.60
2023-01-29T05:18:08.914Z,6.53
2023-01-29T05:20:14.002Z,6.78
2023-01-29T05:22:22.580Z,6.60
2023-01-29T05:24:27.694Z,6.82
2023-01-29T05:26:48.063Z,6.10
2023-01-29T05:28:50.761Z,6.47
2023-01-29T05:30:55.014Z,6.88
2023-01-29T05:32:57.789Z,7.22
2023-01-29T05:35:00.521Z,7.00
2023-01-29T05:37:04.841Z,7.18
2023-01-29T05:39:07.604Z,6.50
2023-01-29T05:41:10.309Z,6.38
2023-01-29T05:43:17.835Z,6.10
2023-01-29T05:45:20.633Z,6.15
2023-01-29T05:47:23.354Z,6.47
2023-01-29T05:49:26.400Z,7.05
2023-01-29T05:51:29.099Z,6.40
2023-01-29T05:53:33.828Z,6.45
2023-01-29T05:55:36.909Z,7.20
2023-01-29T05:57:40.853Z,6.70
2023-01-29T05:59:43.610Z,7.05
2023-01-29T06:01:46.341Z,7.18
2023-01-29T06:03:49.528Z,6.38
2023-01-29T06:05:52.210Z,6.50
2023-01-29T06:07:54.943Z,6.93
2023-01-29T06:09:59.147Z,8.15
2023-01-29T06:12:01.995Z,8.75
2023-01-29T06:14:04.789Z,8.63
2023-01-29T06:16:08.805Z,10.18
2023-01-29T06:18:11.506Z,9.15
2023-01-29T06:20:14.820Z,8.75
2023-01-29T06:22:17.864Z,8.18
2023-01-29T06:24:21.063Z,7.80
2023-01-29T06:26:25.205Z,7.85
2023-01-29T06:28:27.943Z,7.30
2023-01-29T06:30:31.989Z,7.63
2023-01-29T06:32:35.158Z,7.43
2023-01-29T06:34:37.856Z,8.52
2023-01-29T06:36:41.748Z,8.25
2023-01-29T06:38:44.523Z,8.65
2023-01-29T06:40:47.222Z,8.57
2023-01-29T06:42:51.244Z,8.02
2023-01-29T06:44:53.949Z,9.33
2023-01-29T06:46:56.826Z,8.52
2023-01-29T06:49:01.162Z,8.50
2023-01-29T06:51:05.251Z,10.10
2023-01-29T06:53:07.910Z,12.90
2023-01-29T06:55:11.031Z,12.07
2023-01-29T06:57:13.734Z,7.10
2023-01-29T06:59:17.859Z,7.57
2023-01-29T07:01:34.534Z,7.32
2023-01-29T07:03:38.679Z,7.05
2023-01-29T07:05:41.412Z,6.82
2023-01-29T07:07:44.225Z,7.30
2023-01-29T07:09:46.954Z,7.22
2023-01-29T07:11:49.691Z,6.43
2023-01-29T07:13:52.447Z,7.00
2023-01-29T07:15:59.410Z,7.20
2023-01-29T07:18:04.536Z,7.63
2023-01-29T07:20:08.523Z,7.53
2023-01-29T07:22:11.220Z,7.60
2023-01-29T07:24:14.122Z,7.35
2023-01-29T07:26:16.936Z,7.40
2023-01-29T07:28:20.475Z,8.15
2023-01-29T07:30:23.530Z,7.85
2023-01-29T07:32:29.926Z,7.70
2023-01-29T07:34:32.648Z,7.55
2023-01-29T07:36:37.175Z,8.48
2023-01-29T07:38:39.990Z,8.15
2023-01-29T07:40:42.867Z,9.98
2023-01-29T07:42:45.586Z,8.68
2023-01-29T07:44:48.388Z,8.13
2023-01-29T07:46:51.157Z,8.18
2023-01-29T07:48:55.228Z,9.93
2023-01-29T07:50:58.955Z,11.05
2023-01-29T07:53:02.388Z,14.32
2023-01-29T07:55:05.536Z,19.52
2023-01-29T07:57:08.276Z,28.58
2023-01-29T07:59:11.056Z,16.33
2023-01-29T08:01:13.899Z,8.13
2023-01-29T08:03:18.342Z,8.32
2023-01-29T08:05:22.448Z,7.93
2023-01-29T08:07:25.209Z,8.27
2023-01-29T08:09:27.917Z,8.40
2023-01-29T08:11:30.830Z,7.82
2023-01-29T08:13:33.880Z,8.32
2023-01-29T08:15:39.087Z,8.85
2023-01-29T08:20:07.171Z,10.13
2023-01-29T08:22:11.562Z,9.18
2023-01-29T08:24:14.285Z,9.23
2023-01-29T08:26:17.011Z,11.05
2023-01-29T08:28:19.918Z,9.23
2023-01-29T08:30:22.862Z,9.98
2023-01-29T08:32:25.651Z,9.65
2023-01-29T08:34:28.431Z,11.75
2023-01-29T08:36:31.433Z,9.20
2023-01-29T08:38:35.546Z,8.13
2023-01-29T08:40:38.311Z,8.30
2023-01-29T08:42:42.397Z,8.20
2023-01-29T08:44:45.120Z,8.45
2023-01-29T08:46:47.908Z,8.10
2023-01-29T08:48:50.673Z,7.38
2023-01-29T08:50:53.447Z,8.35
2023-01-29T08:52:59.032Z,7.90
2023-01-29T08:55:03.132Z,7.97
2023-01-29T08:57:05.848Z,8.75
2023-01-29T08:59:08.664Z,7.47
2023-01-29T09:01:12.617Z,7.13
2023-01-29T09:03:15.394Z,7.72
2023-01-29T09:05:18.761Z,7.22
2023-01-29T09:07:22.660Z,6.53
2023-01-29T09:09:25.390Z,7.28
2023-01-29T09:11:29.490Z,11.38
2023-01-29T09:13:32.283Z,19.67
2023-01-29T09:15:35.020Z,7.65
2023-01-29T09:17:37.754Z,7.60
2023-01-29T09:19:40.943Z,7.30
2023-01-29T09:21:43.672Z,6.97
2023-01-29T09:23:46.518Z,8.45
2023-01-29T09:25:49.519Z,7.95
2023-01-29T09:27:55.109Z,8.32
2023-01-29T09:29:57.828Z,8.98
2023-01-29T09:32:00.622Z,8.30
2023-01-29T09:34:03.357Z,8.45
2023-01-29T09:36:06.997Z,7.18
2023-01-29T09:38:10.052Z,7.28
2023-01-29T09:40:27.274Z,6.68
2023-01-29T09:42:39.231Z,6.07
2023-01-29T09:44:58.534Z,7.05
2023-01-29T09:47:07.185Z,7.25
2023-01-29T09:49:15.833Z,7.18
2023-01-29T09:51:27.974Z,7.35
2023-01-29T09:53:37.706Z,7.40
2023-01-29T09:55:46.430Z,6.82
2023-01-29T09:57:52.471Z,6.53
2023-01-29T09:59:56.913Z,8.25
2023-01-29T10:02:10.198Z,7.65
2023-01-29T10:04:39.455Z,8.60
2023-01-29T10:06:54.564Z,7.10
2023-01-29T10:09:18.493Z,7.82
2023-01-29T10:11:35.524Z,14.07
2023-01-29T10:13:46.232Z,17.98
2023-01-29T10:16:06.542Z,8.85
2023-01-29T10:18:33.191Z,9.13
2023-01-29T10:20:50.748Z,7.85
2023-01-29T10:23:04.265Z,9.57
2023-01-29T10:25:11.532Z,8.85
2023-01-29T10:27:16.869Z,9.38
2023-01-29T10:29:22.776Z,8.10
2023-01-29T10:31:33.151Z,6.78
2023-01-29T10:33:49.658Z,8.32
2023-01-29T10:36:08.148Z,6.97
2023-01-29T10:38:24.283Z,6.72
2023-01-29T10:40:35.606Z,7.50
2023-01-29T10:42:47.011Z,7.13
2023-01-29T10:45:01.390Z,7.20
2023-01-29T10:47:34.793Z,8.27
2023-01-29T10:49:55.959Z,7.25
2023-01-29T10:52:12.222Z,7.90
2023-01-29T10:54:33.416Z,7.45
2023-01-29T10:56:50.842Z,7.20
2023-01-29T10:58:56.500Z,8.32
2023-01-29T11:00:59.733Z,7.50
2023-01-29T11:03:26.944Z,6.90
2023-01-29T11:05:37.050Z,7.03
2023-01-29T11:07:39.939Z,8.50
2023-01-29T11:09:49.125Z,7.05
2023-01-29T11:11:56.204Z,6.60
2023-01-29T11:14:06.979Z,8.48
2023-01-29T11:16:11.115Z,7.05
2023-01-29T11:18:16.107Z,7.65
2023-01-29T11:20:29.471Z,7.93
2023-01-29T11:22:32.321Z,7.20
2023-01-29T11:24:35.068Z,6.88
2023-01-29T11:26:41.732Z,6.65
2023-01-29T11:28:46.717Z,6.80
2023-01-29T11:30:51.887Z,6.82
2023-01-29T11:33:07.258Z,6.30
2023-01-29T11:35:23.297Z,6.68
2023-01-29T11:37:33.903Z,7.28
2023-01-29T11:39:44.892Z,7.47
2023-01-29T11:41:54.707Z,7.47
2023-01-29T11:43:59.676Z,6.82
2023-01-29T11:46:05.084Z,7.13
2023-01-29T11:48:16.815Z,7.40
2023-01-29T11:50:24.400Z,7.30
2023-01-29T11:52:36.451Z,7.45
2023-01-29T11:54:45.476Z,7.30
2023-01-29T11:56:49.315Z,7.50
2023-01-29T11:58:55.371Z,7.22
2023-01-29T12:00:59.925Z,6.90
2023-01-29T12:03:08.351Z,7.72
2023-01-29T12:05:17.093Z,6.97
2023-01-29T12:07:21.626Z,7.10
2023-01-29T12:09:27.327Z,7.57
2023-01-29T12:11:32.298Z,7.13
2023-01-29T12:13:36.086Z,7.32
2023-01-29T12:15:39.477Z,7.15
2023-01-29T12:17:44.555Z,6.95
2023-01-29T12:19:52.644Z,7.35
2023-01-29T12:22:03.110Z,7.22
2023-01-29T12:24:24.209Z,7.10
2023-01-29T12:26:33.517Z,7.88
2023-01-29T12:28:49.459Z,7.22
2023-01-29T12:31:05.829Z,7.30
2023-01-29T12:33:16.892Z,9.10
2023-01-29T12:35:25.998Z,9.50
2023-01-29T12:37:39.099Z,7.20
2023-01-29T12:39:43.251Z,6.43
2023-01-29T12:41:52.544Z,7.75
2023-01-29T12:43:59.064Z,7.22
2023-01-29T12:46:03.087Z,7.70
2023-01-29T12:48:11.168Z,6.57
2023-01-29T12:50:20.991Z,7.30
2023-01-29T12:52:35.092Z,7.20
2023-01-29T12:54:40.293Z,7.35
2023-01-29T12:56:48.083Z,7.65
2023-01-29T12:58:53.884Z,7.47
2023-01-29T13:01:02.625Z,7.65
2023-01-29T13:03:12.117Z,7.65
2023-01-29T13:05:21.737Z,7.10
2023-01-29T13:07:29.427Z,7.45
2023-01-29T13:09:34.925Z,7.45
2023-01-29T13:11:42.115Z,6.97
2023-01-29T13:13:54.084Z,6.85
2023-01-29T13:16:00.025Z,7.18
2023-01-29T13:18:21.513Z,7.78
2023-01-29T13:20:29.800Z,6.78
2023-01-29T13:22:36.329Z,6.97
2023-01-29T13:24:44.343Z,6.63
2023-01-29T13:26:51.247Z,6.65
2023-01-29T13:28:55.954Z,7.20
2023-01-29T13:31:14.748Z,8.73
2023-01-29T13:33:24.522Z,10.07
2023-01-29T13:35:27.497Z,7.50
2023-01-29T13:37:33.596Z,6.47
2023-01-29T13:39:44.369Z,7.10
2023-01-29T13:41:47.456Z,7.28
2023-01-29T13:43:51.335Z,6.13
2023-01-29T13:45:56.115Z,7.15
2023-01-29T13:48:13.265Z,6.75
2023-01-29T13:50:22.582Z,6.85
2023-01-29T13:52:34.700Z,6.30
2023-01-29T13:54:38.424Z,6.72
2023-01-29T13:56:49.961Z,7.18
2023-01-29T13:58:57.352Z,7.40
2023-01-29T14:01:02.349Z,7.57
2023-01-29T14:04:04.086Z,7.38
2023-01-29T14:06:08.655Z,6.72
2023-01-29T14:08:39.845Z,7.20
2023-01-29T14:10:43.931Z,7.00
2023-01-29T14:12:52.312Z,7.15
2023-01-29T14:15:06.640Z,7.30
2023-01-29T14:17:10.872Z,6.15
2023-01-29T14:19:19.994Z,6.78
2023-01-29T14:21:28.295Z,7.25
2023-01-29T14:23:37.230Z,6.90
2023-01-29T14:25:41.894Z,6.93
2023-01-29T14:27:48.705Z,7.10
2023-01-29T14:29:57.530Z,6.97
2023-01-29T14:32:08.358Z,7.72
2023-01-29T14:34:24.876Z,7.65
2023-01-29T14:36:27.989Z,7.13
2023-01-29T14:38:31.050Z,7.40
2023-01-29T14:40:36.876Z,7.10
2023-01-29T14:42:45.120Z,7.75
2023-01-29T14:44:50.134Z,6.50
2023-01-29T14:46:54.045Z,6.90
2023-01-29T14:48:56.840Z,6.93
2023-01-29T14:51:09.670Z,7.07
2023-01-29T14:53:19.406Z,7.05
2023-01-29T14:55:30.661Z,7.03
2023-01-29T14:57:34.352Z,7.25
2023-01-29T14:59:41.477Z,7.03
2023-01-29T15:01:50.961Z,13.13
2023-01-29T15:03:59.269Z,9.48
2023-01-29T15:06:04.029Z,8.13
2023-01-29T15:08:14.668Z,8.93
2023-01-29T15:10:22.866Z,9.40
2023-01-29T15:12:32.458Z,8.02
2023-01-29T15:14:40.688Z,6.82
2023-01-29T15:16:52.702Z,7.00
2023-01-29T15:19:05.366Z,6.65
2023-01-29T15:21:14.280Z,6.55
2023-01-29T15:23:27.188Z,7.03
2023-01-29T15:25:35.488Z,6.95
2023-01-29T15:27:43.091Z,7.32
2023-01-29T15:29:52.610Z,7.47
2023-01-29T15:31:55.905Z,6.95
2023-01-29T15:34:00.147Z,6.88
2023-01-29T15:36:08.887Z,7.35
2023-01-29T15:38:18.540Z,7.55
2023-01-29T15:40:21.391Z,8.50
2023-01-29T15:42:25.819Z,8.55
2023-01-29T15:44:28.579Z,9.65
2023-01-29T15:46:35.214Z,9.05
2023-01-29T15:48:41.528Z,8.65
2023-01-29T15:50:45.267Z,8.98
2023-01-29T15:52:50.920Z,8.52
2023-01-29T15:54:57.397Z,7.68
2023-01-29T15:57:00.901Z,7.32
2023-01-29T15:59:09.850Z,7.93
2023-01-29T16:01:14.161Z,8.73
2023-01-29T16:03:17.814Z,9.32
2023-01-29T16:05:23.125Z,9.15
2023-01-29T16:07:26.211Z,8.00
2023-01-29T16:09:29.861Z,7.47
2023-01-29T16:11:35.053Z,6.85
2023-01-29T16:13:41.066Z,7.63
2023-01-29T16:15:56.086Z,8.35
2023-01-29T16:18:00.995Z,11.25
2023-01-29T16:20:06.735Z,11.48
2023-01-29T16:22:10.152Z,9.73
2023-01-29T16:24:19.678Z,9.98
2023-01-29T16:26:26.664Z,9.05
2023-01-29T16:28:31.429Z,8.70
2023-01-29T16:30:34.428Z,8.57
2023-01-29T16:32:37.523Z,8.35
2023-01-29T16:34:42.835Z,7.20
2023-01-29T16:36:47.512Z,7.68
2023-01-29T16:38:54.141Z,6.63
2023-01-29T16:41:09.081Z,7.25
2023-01-29T16:43:50.574Z,8.88
2023-01-29T16:46:03.290Z,8.18
2023-01-29T16:48:27.652Z,9.90
2023-01-29T16:50:40.503Z,8.52
2023-01-29T16:52:57.669Z,8.27
2023-01-29T16:55:03.336Z,8.27
2023-01-29T16:57:06.096Z,7.50
2023-01-29T16:59:19.863Z,8.02
2023-01-29T17:01:25.463Z,9.75
2023-01-29T17:03:31.519Z,12.10
2023-01-29T17:05:37.905Z,9.70
2023-01-29T17:07:40.680Z,7.72
2023-01-29T17:09:43.659Z,7.80
2023-01-29T17:11:46.432Z,8.27
2023-01-29T17:13:49.275Z,8.85
2023-01-29T17:15:53.598Z,11.35
2023-01-29T17:17:56.362Z,26.13
2023-01-29T17:19:59.907Z,21.92
2023-01-29T17:22:05.495Z,10.63
2023-01-29T17:24:08.464Z,11.85
2023-01-29T17:26:14.996Z,26.58
2023-01-29T17:28:18.766Z,15.77
2023-01-29T17:30:24.575Z,13.50
2023-01-29T17:32:42.971Z,14.90
2023-01-29T17:34:48.240Z,11.30
2023-01-29T17:36:50.956Z,9.27
2023-01-29T17:38:54.023Z,9.35
2023-01-29T17:41:00.851Z,10.15
2023-01-29T17:43:03.903Z,11.13
2023-01-29T17:45:08.101Z,12.07
2023-01-29T17:47:15.011Z,9.32
2023-01-29T17:49:25.735Z,10.40
2023-01-29T17:51:28.490Z,9.98
2023-01-29T17:53:45.429Z,13.23
2023-01-29T17:55:49.413Z,16.60
2023-01-29T17:57:52.210Z,15.60
2023-01-29T17:59:54.941Z,21.88
2023-01-29T18:01:57.972Z,16.95
2023-01-29T18:04:00.847Z,23.70
2023-01-29T18:06:08.759Z,14.52
2023-01-29T18:08:17.608Z,11.02
2023-01-29T18:10:22.939Z,10.32
2023-01-29T18:12:25.811Z,11.18
2023-01-29T18:14:28.597Z,10.60
2023-01-29T18:16:37.098Z,9.20
2023-01-29T18:18:40.398Z,12.98
2023-01-29T18:20:44.938Z,11.75
2023-01-29T18:22:49.427Z,14.20
2023-01-29T18:24:52.256Z,11.57
2023-01-29T18:26:55.066Z,11.90
2023-01-29T18:28:57.815Z,23.83
2023-01-29T18:31:02.335Z,18.80
2023-01-29T18:33:05.286Z,13.88
2023-01-29T18:35:09.320Z,19.65
2023-01-29T18:37:13.036Z,19.02
2023-01-29T18:39:17.743Z,20.27
2023-01-29T18:41:20.998Z,29.95
2023-01-29T18:43:26.191Z,23.35
2023-01-29T18:45:29.381Z,15.68
2023-01-29T18:47:32.231Z,13.23
2023-01-29T18:49:38.737Z,11.77
2023-01-29T18:51:41.546Z,10.27
2023-01-29T18:53:46.532Z,10.05
2023-01-29T18:56:02.519Z,9.20
2023-01-29T18:58:25.089Z,10.55
2023-01-29T19:00:28.075Z,8.35
2023-01-29T19:02:30.849Z,8.93
2023-01-29T19:04:33.949Z,8.38
2023-01-29T19:06:37.953Z,8.55
2023-01-29T19:08:42.850Z,8.65
2023-01-29T19:10:46.088Z,9.52
2023-01-29T19:12:50.186Z,8.80
2023-01-29T19:14:52.987Z,8.18
2023-01-29T19:16:57.077Z,8.80
2023-01-29T19:19:00.102Z,9.57
2023-01-29T19:21:08.333Z,9.25
2023-01-29T19:23:11.363Z,9.05
2023-01-29T19:25:14.111Z,10.40
2023-01-29T19:27:17.305Z,11.15
2023-01-29T19:29:21.723Z,9.57
2023-01-29T19:31:24.898Z,9.95
2023-01-29T19:33:28.661Z,10.82
2023-01-29T19:35:32.632Z,11.10
2023-01-29T19:37:35.529Z,11.43
2023-01-29T19:39:38.519Z,13.90
2023-01-29T19:41:41.730Z,10.65
2023-01-29T19:43:45.799Z,12.95
2023-01-29T19:45:51.017Z,20.75
2023-01-29T19:47:55.056Z,28.50
2023-01-29T19:49:57.886Z,22.30
2023-01-29T19:52:01.043Z,17.00
2023-01-29T19:54:04.114Z,17.05
2023-01-29T19:56:09.433Z,18.27
2023-01-29T19:58:12.438Z,16.95
2023-01-29T20:00:17.477Z,20.00
2023-01-29T20:02:21.669Z,20.83
2023-01-29T20:04:24.454Z,22.17
2023-01-29T20:06:30.969Z,25.05
2023-01-29T20:08:34.667Z,26.67
2023-01-29T20:10:37.553Z,27.58
2023-01-29T20:12:40.357Z,16.25
2023-01-29T20:14:48.613Z,14.63
2023-01-29T20:16:51.387Z,14.98
2023-01-29T20:18:55.466Z,14.88
2023-01-29T20:21:22.046Z,14.43
2023-01-29T20:23:37.247Z,12.95
2023-01-29T20:25:41.697Z,13.88
2023-01-29T20:27:44.592Z,14.20
2023-01-29T20:29:47.369Z,13.95
2023-01-29T20:31:50.246Z,15.18
2023-01-29T20:33:53.042Z,15.10
2023-01-29T20:35:58.422Z,18.90
2023-01-29T20:38:01.720Z,16.15
2023-01-29T20:40:04.937Z,14.48
2023-01-29T20:42:07.753Z,13.52
2023-01-29T20:44:10.674Z,12.95
2023-01-29T20:46:14.121Z,11.95
2023-01-29T20:48:17.013Z,11.43
2023-01-29T20:50:20.091Z,11.35
2023-01-29T20:52:27.747Z,10.95
2023-01-29T20:54:33.159Z,10.20
2023-01-29T20:56:44.003Z,10.23
2023-01-29T20:58:50.121Z,10.63
2023-01-29T21:00:53.027Z,11.00
2023-01-29T21:02:55.802Z,11.18
2023-01-29T21:04:58.562Z,10.98
2023-01-29T21:07:01.383Z,9.93
2023-01-29T21:09:05.621Z,11.18
2023-01-29T21:11:10.210Z,10.73
2023-01-29T21:13:13.512Z,10.93
2023-01-29T21:15:16.696Z,9.48
2023-01-29T21:17:19.609Z,9.65
2023-01-29T21:19:22.434Z,9.77
2023-01-29T21:21:26.627Z,9.85
2023-01-29T21:23:29.456Z,10.18
2023-01-29T21:25:33.625Z,10.15
2023-01-29T21:27:36.321Z,10.25
2023-01-29T21:29:39.058Z,10.25
2023-01-29T21:31:42.225Z,10.88
2023-01-29T21:33:45.223Z,11.20
2023-01-29T21:35:47.966Z,10.68
2023-01-29T21:37:50.708Z,10.98
2023-01-29T21:39:53.435Z,10.52
2023-01-29T21:42:15.121Z,10.93
2023-01-29T21:44:17.843Z,10.90
2023-01-29T21:46:20.655Z,10.07
2023-01-29T21:48:23.526Z,10.63
2023-01-29T21:50:26.208Z,10.80
2023-01-29T21:52:29.077Z,10.45
2023-01-29T21:54:35.366Z,11.02
2023-01-29T21:56:38.072Z,10.23
2023-01-29T21:58:42.145Z,11.00
2023-01-29T22:00:50.602Z,11.52
2023-01-29T22:02:53.440Z,12.90
2023-01-29T22:05:08.657Z,11.23
2023-01-29T22:07:19.005Z,10.23
2023-01-29T22:09:22.557Z,10.38
2023-01-29T22:11:25.338Z,10.80
2023-01-29T22:13:28.071Z,10.70
2023-01-29T22:15:32.165Z,11.73
2023-01-29T22:17:35.280Z,12.40
2023-01-29T22:19:38.054Z,15.90
2023-01-29T22:21:40.840Z,12.65
2023-01-29T22:23:43.541Z,11.05
2023-01-29T22:25:46.294Z,10.75
2023-01-29T22:27:49.058Z,11.93
2023-01-29T22:29:51.796Z,11.88
2023-01-29T22:31:57.506Z,10.15
2023-01-29T22:34:00.248Z,11.30
2023-01-29T22:36:03.423Z,11.63
2023-01-29T22:38:06.524Z,10.68
2023-01-29T22:40:10.589Z,10.60
2023-01-29T22:42:13.308Z,11.05
2023-01-29T22:44:16.136Z,10.20
2023-01-29T22:46:18.977Z,11.18
2023-01-29T22:48:23.517Z,10.70
2023-01-29T22:50:26.349Z,11.00
2023-01-29T22:52:38.631Z,9.85
2023-01-29T22:54:42.864Z,11.18
2023-01-29T22:56:45.603Z,10.52
2023-01-29T22:58:51.315Z,10.27
2023-01-29T23:00:54.091Z,9.88
2023-01-29T23:02:56.801Z,9.98
2023-01-29T23:05:00.925Z,10.20
2023-01-29T23:07:03.959Z,10.20
2023-01-29T23:09:06.955Z,10.10
2023-01-29T23:11:18.730Z,10.40
2023-01-29T23:13:21.471Z,10.43
2023-01-29T23:15:24.180Z,9.48
2023-01-29T23:17:26.939Z,10.55
2023-01-29T23:19:30.491Z,9.93
2023-01-29T23:21:34.839Z,10.43
2023-01-29T23:23:38.535Z,10.50
2023-01-29T23:25:58.925Z,10.18
2023-01-29T23:28:01.651Z,10.75
2023-01-29T23:30:05.556Z,10.25
2023-01-29T23:32:08.454Z,10.30
2023-01-29T23:34:11.286Z,10.48
2023-01-29T23:36:14.067Z,10.70
2023-01-29T23:38:18.483Z,9.70
2023-01-29T23:40:21.228Z,10.15
2023-01-29T23:42:23.998Z,10.73
2023-01-29T23:44:26.825Z,11.15
2023-01-29T23:46:29.748Z,10.52
2023-01-29T23:48:32.513Z,10.25
2023-01-29T23:50:35.226Z,10.05
2023-01-29T23:52:38.824Z,11.02
2023-01-29T23:54:42.855Z,10.23
2023-01-29T23:56:45.767Z,10.57
2023-01-29T23:58:48.483Z,10.80
